Time;durP1;ratioP1;P1;durP2;ratioP2;P2;SDS_P1;SDS_P2;PMS_P1;PMS_P2;Temp;Humidity;BMP_temperature;BMP_pressure;BME280_temperature;BME280_humidity;BME280_pressure;Samples;Min_cycle;Max_cycle;Signal;HPM_P1;HPM_P2
2021/08/13 00:01:36;;;;;;;21.33;13.88;;;19.40;99.90;;;;;;5011697;28;20366;-68
2021/08/13 00:04:03;;;;;;;22.17;13.68;;;19.30;99.90;;;;;;5006975;28;20249;-67
2021/08/13 00:06:31;;;;;;;21.65;13.50;;;19.30;99.90;;;;;;5010268;28;20255;-67
2021/08/13 00:08:58;;;;;;;21.27;13.77;;;19.30;99.90;;;;;;5012811;28;20602;-67
2021/08/13 00:11:25;;;;;;;20.75;13.40;;;19.30;99.90;;;;;;5013774;28;20278;-67
2021/08/13 00:13:51;;;;;;;;;;;19.30;99.90;;;;;;5011255;28;20295;-69
2021/08/13 00:16:18;;;;;;;;;;;19.30;99.90;;;;;;5011554;28;20385;-66
2021/08/13 00:18:44;;;;;;;;;;;19.30;99.90;;;;;;5012850;28;19963;-66
2021/08/13 00:21:11;;;;;;;19.17;12.98;;;19.20;99.90;;;;;;5009439;28;20092;-68
2021/08/13 00:23:39;;;;;;;21.48;12.70;;;19.20;99.90;;;;;;5010015;28;20204;-66
2021/08/13 00:26:06;;;;;;;21.65;12.70;;;19.20;99.90;;;;;;5010969;28;20244;-67
2021/08/13 00:28:33;;;;;;;22.35;14.90;;;19.20;99.90;;;;;;5012124;28;20203;-67
2021/08/13 00:31:00;;;;;;;24.60;15.30;;;19.20;99.90;;;;;;5012605;28;20673;-67
2021/08/13 00:33:28;;;;;;;26.70;15.23;;;19.20;99.90;;;;;;5007996;28;20313;-68
2021/08/13 00:35:56;;;;;;;24.13;14.93;;;19.10;99.90;;;;;;5011260;28;20723;-66
2021/08/13 00:38:23;;;;;;;23.00;15.93;;;19.10;99.90;;;;;;5011598;28;20271;-67
2021/08/13 00:40:52;;;;;;;24.40;15.88;;;19.10;99.90;;;;;;5011226;28;20663;-67
2021/08/13 00:43:19;;;;;;;26.27;16.08;;;19.00;99.90;;;;;;5013411;28;20199;-66
2021/08/13 00:45:48;;;;;;;24.67;15.43;;;19.00;99.90;;;;;;5014196;28;20291;-69
2021/08/13 00:48:17;;;;;;;27.33;16.35;;;19.00;99.90;;;;;;5012046;28;20544;-68
2021/08/13 00:50:58;;;;;;;25.77;15.67;;;19.00;99.90;;;;;;5006978;28;20224;-68
2021/08/13 00:53:30;;;;;;;25.73;16.13;;;19.00;99.90;;;;;;5009960;28;20266;-65
2021/08/13 00:55:59;;;;;;;24.88;15.75;;;19.00;99.90;;;;;;5009067;28;20700;-66
2021/08/13 00:58:37;;;;;;;25.65;17.95;;;19.00;99.90;;;;;;5009147;28;20214;-68
2021/08/13 01:01:23;;;;;;;30.88;18.45;;;18.90;99.90;;;;;;5011144;28;20211;-67
2021/08/13 01:03:50;;;;;;;29.98;18.42;;;18.90;99.90;;;;;;5007857;28;20231;-69
2021/08/13 01:06:17;;;;;;;33.35;18.77;;;18.90;99.90;;;;;;5011303;28;20204;-67
2021/08/13 01:08:46;;;;;;;29.60;19.55;;;18.80;99.90;;;;;;5012279;28;20220;-65
2021/08/13 01:11:24;;;;;;;32.88;19.63;;;18.80;99.90;;;;;;5007679;28;20240;-67
2021/08/13 01:13:57;;;;;;;31.80;18.63;;;18.70;99.90;;;;;;5009545;28;20239;-68
2021/08/13 01:16:27;;;;;;;31.70;20.05;;;18.70;99.90;;;;;;5008892;28;20201;-68
2021/08/13 01:19:00;;;;;;;31.63;20.40;;;18.70;99.90;;;;;;5008963;28;20699;-65
2021/08/13 01:21:45;;;;;;;32.75;19.90;;;18.70;99.90;;;;;;5011571;28;20287;-67
2021/08/13 01:24:17;;;;;;;33.03;19.63;;;18.60;99.90;;;;;;5007994;28;20204;-69
2021/08/13 01:26:52;;;;;;;32.80;19.92;;;18.60;99.90;;;;;;5010996;28;20204;-67
2021/08/13 01:29:31;;;;;;;32.13;20.45;;;18.60;99.90;;;;;;5010772;28;20211;-67
2021/08/13 01:32:19;;;;;;;32.13;19.83;;;18.60;99.90;;;;;;5011751;28;20220;-65
2021/08/13 01:34:53;;;;;;;32.20;20.30;;;18.60;99.90;;;;;;5005981;28;20643;-67
2021/08/13 01:37:22;;;;;;;30.63;20.50;;;18.60;99.90;;;;;;5007715;28;20295;-69
2021/08/13 01:40:01;;;;;;;34.35;21.52;;;18.60;99.90;;;;;;5006839;28;20201;-67
2021/08/13 01:42:30;;;;;;;34.97;21.23;;;18.60;99.90;;;;;;5007009;28;20279;-68
2021/08/13 01:45:01;;;;;;;30.35;20.52;;;18.60;99.90;;;;;;5011103;28;20666;-68
2021/08/13 01:47:31;;;;;;;34.63;22.08;;;18.60;99.90;;;;;;5010846;28;20704;-68
2021/08/13 01:49:58;;;;;;;35.22;21.35;;;18.50;99.90;;;;;;5005330;28;20212;-66
2021/08/13 01:52:28;;;;;;;36.05;20.75;;;18.50;99.90;;;;;;5007720;28;20311;-68
2021/08/13 01:54:55;;;;;;;33.67;20.95;;;18.50;99.90;;;;;;5011680;28;20331;-68
2021/08/13 01:57:24;;;;;;;36.08;22.38;;;18.60;99.90;;;;;;5007608;28;20270;-65
2021/08/13 01:59:52;;;;;;;35.53;22.52;;;18.50;99.90;;;;;;5008590;28;20201;-67
2021/08/13 02:02:20;;;;;;;37.50;21.88;;;18.50;99.90;;;;;;5010235;28;20291;-66
2021/08/13 02:04:52;;;;;;;36.78;22.23;;;18.50;99.90;;;;;;5026588;28;20204;-65
2021/08/13 02:07:20;;;;;;;35.50;21.50;;;18.40;99.90;;;;;;5009765;28;20204;-67
2021/08/13 02:09:49;;;;;;;35.13;21.77;;;18.40;99.90;;;;;;5008339;28;20243;-67
2021/08/13 02:12:16;;;;;;;34.45;21.85;;;18.40;99.90;;;;;;5007933;28;20274;-69
2021/08/13 02:14:43;;;;;;;36.25;22.15;;;18.40;99.90;;;;;;5007590;28;20669;-67
2021/08/13 02:17:16;;;;;;;34.53;21.52;;;18.40;99.90;;;;;;5008599;28;20228;-66
2021/08/13 02:19:47;;;;;;;37.75;21.88;;;18.30;99.90;;;;;;5009198;28;20676;-66
2021/08/13 02:22:16;;;;;;;32.33;21.00;;;18.30;99.90;;;;;;5009090;28;20203;-67
2021/08/13 02:24:43;;;;;;;33.28;19.52;;;18.30;99.90;;;;;;5007806;28;20299;-68
2021/08/13 02:27:13;;;;;;;34.15;21.50;;;18.30;99.90;;;;;;5007422;28;20200;-67
2021/08/13 02:29:42;;;;;;;39.38;22.02;;;18.30;99.90;;;;;;5010152;28;20762;-67
2021/08/13 02:32:11;;;;;;;33.53;21.48;;;18.30;99.90;;;;;;5007009;28;20217;-67
2021/08/13 02:34:39;;;;;;;40.05;22.55;;;18.30;99.90;;;;;;5008816;28;20215;-66
2021/08/13 02:37:18;;;;;;;36.58;21.40;;;18.20;99.90;;;;;;5007133;28;20208;-67
2021/08/13 02:39:50;;;;;;;34.63;21.20;;;18.20;99.90;;;;;;5004145;28;20223;-66
2021/08/13 02:42:22;;;;;;;32.17;20.75;;;18.20;99.90;;;;;;5007195;28;20546;-65
2021/08/13 02:44:54;;;;;;;36.97;21.75;;;18.20;99.90;;;;;;5008748;28;20255;-68
2021/08/13 02:47:25;;;;;;;32.70;19.73;;;18.20;99.90;;;;;;5008809;28;20614;-67
2021/08/13 02:49:57;;;;;;;31.65;19.52;;;18.20;99.90;;;;;;5008341;28;20233;-65
2021/08/13 02:52:30;;;;;;;34.08;20.73;;;18.20;99.90;;;;;;5007120;28;20220;-65
2021/08/13 02:55:02;;;;;;;34.40;21.05;;;18.20;99.90;;;;;;5008633;28;20255;-66
2021/08/13 02:57:36;;;;;;;32.30;20.77;;;18.20;99.90;;;;;;5003883;28;20208;-69
2021/08/13 03:00:06;;;;;;;36.25;21.27;;;18.20;99.90;;;;;;5005558;28;20175;-66
2021/08/13 03:02:34;;;;;;;33.85;20.15;;;18.10;99.90;;;;;;5002357;28;20295;-67
2021/08/13 03:05:03;;;;;;;32.17;19.73;;;18.10;99.90;;;;;;5001576;28;20296;-67
2021/08/13 03:07:32;;;;;;;32.75;20.58;;;18.10;99.90;;;;;;5006846;28;20200;-68
2021/08/13 03:10:02;;;;;;;33.67;21.35;;;18.10;99.90;;;;;;5011272;28;20204;-66
2021/08/13 03:12:30;;;;;;;33.30;20.38;;;18.00;99.90;;;;;;5006355;28;20314;-66
2021/08/13 03:15:00;;;;;;;34.00;20.67;;;18.00;99.90;;;;;;5010161;28;20201;-67
2021/08/13 03:17:35;;;;;;;31.90;19.48;;;18.00;99.90;;;;;;5008731;28;20688;-68
2021/08/13 03:20:04;;;;;;;33.28;19.33;;;17.90;99.90;;;;;;5011901;28;20602;-66
2021/08/13 03:22:34;;;;;;;34.92;20.50;;;17.90;99.90;;;;;;5010141;28;20250;-67
2021/08/13 03:25:01;;;;;;;35.03;20.23;;;17.90;99.90;;;;;;5012389;28;20284;-67
2021/08/13 03:27:30;;;;;;;36.53;18.98;;;17.80;99.90;;;;;;5011840;28;20255;-68
2021/08/13 03:29:57;;;;;;;34.35;19.85;;;17.80;99.90;;;;;;5008994;28;20263;-67
2021/08/13 03:32:24;;;;;;;31.23;18.65;;;17.80;99.90;;;;;;5009157;28;20220;-66
2021/08/13 03:34:51;;;;;;;28.75;18.25;;;17.80;99.90;;;;;;5010994;28;20211;-67
2021/08/13 03:37:18;;;;;;;34.13;19.30;;;17.80;99.90;;;;;;5007737;28;20201;-68
2021/08/13 03:39:47;;;;;;;32.38;18.40;;;17.80;99.90;;;;;;5009698;28;20205;-66
2021/08/13 03:42:13;;;;;;;32.67;19.90;;;17.80;99.90;;;;;;5011194;28;20546;-66
2021/08/13 03:44:41;;;;;;;32.45;19.40;;;17.80;99.90;;;;;;5010077;28;20255;-68
2021/08/13 03:47:08;;;;;;;33.72;19.05;;;17.70;99.90;;;;;;5013001;28;20191;-69
2021/08/13 03:49:35;;;;;;;34.80;19.98;;;17.70;99.90;;;;;;5011740;28;20200;-67
2021/08/13 03:52:03;;;;;;;31.55;18.55;;;17.70;99.90;;;;;;5012997;28;20630;-67
2021/08/13 03:54:31;;;;;;;32.42;18.52;;;17.70;99.90;;;;;;5008941;28;20231;-68
2021/08/13 03:57:00;;;;;;;31.45;17.95;;;17.70;99.90;;;;;;5011015;28;20579;-68
2021/08/13 03:59:29;;;;;;;28.38;18.42;;;17.70;99.90;;;;;;5008590;28;20631;-69
2021/08/13 04:01:56;;;;;;;27.15;16.77;;;17.70;99.90;;;;;;5008842;28;20193;-67
2021/08/13 04:04:23;;;;;;;29.15;17.92;;;17.60;99.90;;;;;;5010049;28;20208;-66
2021/08/13 04:06:50;;;;;;;31.98;17.83;;;17.60;99.90;;;;;;5008516;28;20208;-68
2021/08/13 04:09:17;;;;;;;27.92;16.02;;;17.60;99.90;;;;;;5009070;28;20197;-66
2021/08/13 04:11:44;;;;;;;24.80;15.90;;;17.60;99.90;;;;;;5008613;28;20200;-68
2021/08/13 04:14:12;;;;;;;31.17;16.05;;;17.60;99.90;;;;;;5008101;28;20236;-68
2021/08/13 04:16:39;;;;;;;23.88;15.55;;;17.60;99.90;;;;;;5009485;28;20211;-69
2021/08/13 04:19:06;;;;;;;26.88;14.48;;;17.60;99.90;;;;;;5010765;28;20262;-67
2021/08/13 04:21:37;;;;;;;28.13;15.27;;;17.60;99.90;;;;;;5010184;28;20695;-68
2021/08/13 04:24:05;;;;;;;24.45;14.73;;;17.60;99.90;;;;;;5011750;28;20212;-68
2021/08/13 04:26:32;;;;;;;26.02;15.88;;;17.60;99.90;;;;;;5008407;28;20209;-66
2021/08/13 04:28:59;;;;;;;25.17;15.07;;;17.60;99.90;;;;;;5009542;28;20209;-68
2021/08/13 04:31:27;;;;;;;26.85;16.02;;;17.60;99.90;;;;;;5006163;28;20661;-69
2021/08/13 04:33:55;;;;;;;25.00;15.02;;;17.60;99.90;;;;;;5007727;28;20217;-68
2021/08/13 04:36:25;;;;;;;21.77;14.48;;;17.60;99.90;;;;;;5007770;28;20551;-66
2021/08/13 04:38:52;;;;;;;;;;;17.60;99.90;;;;;;5008965;28;20197;-67
2021/08/13 04:41:20;;;;;;;25.50;13.65;;;17.60;99.90;;;;;;5012314;28;20039;-66
2021/08/13 04:43:47;;;;;;;;;;;17.60;99.90;;;;;;5010026;28;19958;-68
2021/08/13 04:46:15;;;;;;;;;;;17.60;99.90;;;;;;5009437;28;20445;-66
2021/08/13 04:48:44;;;;;;;;;;;17.60;99.90;;;;;;5010093;28;19958;-68
2021/08/13 04:51:11;;;;;;;;;;;17.60;99.90;;;;;;5009925;28;20482;-67
2021/08/13 04:53:39;;;;;;;;;;;17.60;99.90;;;;;;5010515;28;20432;-68
2021/08/13 04:56:05;;;;;;;;;;;17.60;99.90;;;;;;5011776;28;19962;-66
2021/08/13 04:58:36;;;;;;;;;;;17.60;99.90;;;;;;5008653;28;19957;-67
2021/08/13 05:01:03;;;;;;;;;;;17.60;99.90;;;;;;5007470;28;20065;-66
2021/08/13 05:03:30;;;;;;;;;;;17.60;99.90;;;;;;5007544;28;20004;-66
2021/08/13 05:05:58;;;;;;;;;;;17.60;99.90;;;;;;5010497;28;20084;-68
2021/08/13 05:08:25;;;;;;;;;;;17.60;99.90;;;;;;5013156;28;19962;-67
2021/08/13 05:10:55;;;;;;;;;;;17.60;99.90;;;;;;5010454;28;20437;-68
2021/08/13 05:13:21;;;;;;;;;;;17.60;99.90;;;;;;5009176;28;19969;-68
2021/08/13 05:15:48;;;;;;;;;;;17.60;99.90;;;;;;5004497;28;20024;-69
2021/08/13 05:18:15;;;;;;;;;;;17.70;99.90;;;;;;5005872;28;19961;-67
2021/08/13 05:20:42;;;;;;;;;;;17.70;99.90;;;;;;5009325;28;20312;-68
2021/08/13 05:23:11;;;;;;;20.10;11.38;;;17.70;99.90;;;;;;5012757;28;20402;-66
2021/08/13 05:25:40;;;;;;;19.70;10.60;;;17.80;99.90;;;;;;5010855;28;20696;-70
2021/08/13 05:28:07;;;;;;;18.23;10.98;;;17.80;99.90;;;;;;5007552;28;20205;-67
2021/08/13 05:30:37;;;;;;;17.45;11.18;;;17.90;99.90;;;;;;5013081;28;20193;-68
2021/08/13 05:33:05;;;;;;;21.15;10.75;;;17.90;99.90;;;;;;5009195;28;20867;-67
2021/08/13 05:35:33;;;;;;;19.45;10.27;;;17.90;99.90;;;;;;5010043;28;20208;-67
2021/08/13 05:38:03;;;;;;;19.10;10.60;;;17.90;99.90;;;;;;5008040;28;20224;-69
2021/08/13 05:40:31;;;;;;;17.98;9.90;;;17.90;99.90;;;;;;5009060;28;20204;-68
2021/08/13 05:43:00;;;;;;;18.40;10.70;;;18.00;99.90;;;;;;5007337;28;20296;-68
2021/08/13 05:45:27;;;;;;;18.40;10.75;;;18.00;99.90;;;;;;5010590;28;20250;-68
2021/08/13 05:47:55;;;;;;;19.52;10.32;;;18.00;99.90;;;;;;5008785;28;20296;-67
2021/08/13 05:50:22;;;;;;;16.83;9.52;;;18.00;99.90;;;;;;5006795;28;20201;-67
2021/08/13 05:52:51;;;;;;;17.88;10.25;;;18.10;99.90;;;;;;5009408;28;20244;-67
2021/08/13 05:55:18;;;;;;;17.42;9.30;;;18.10;99.90;;;;;;5008227;28;20220;-67
2021/08/13 05:57:47;;;;;;;21.90;10.50;;;18.10;99.90;;;;;;5010839;28;20204;-68
2021/08/13 06:00:14;;;;;;;18.00;10.18;;;18.10;99.90;;;;;;5006135;28;20964;-68
2021/08/13 06:03:01;;;;;;;16.02;9.70;;;18.20;99.90;;;;;;5008151;28;20223;-68
2021/08/13 06:05:30;;;;;;;14.38;9.73;;;18.20;99.90;;;;;;5006611;28;20318;-67
2021/08/13 06:08:00;;;;;;;14.55;8.73;;;18.20;99.90;;;;;;5004210;28;20632;-68
2021/08/13 06:10:27;;;;;;;15.93;7.82;;;18.30;99.90;;;;;;5008600;28;20209;-71
2021/08/13 06:12:55;;;;;;;17.67;7.18;;;18.30;99.90;;;;;;5007037;28;20592;-68
2021/08/13 06:15:23;;;;;;;16.65;6.60;;;18.30;99.90;;;;;;5009010;28;20213;-65
2021/08/13 06:17:49;;;;;;;14.13;6.60;;;18.40;99.90;;;;;;5008781;28;20599;-68
2021/08/13 06:20:18;;;;;;;12.20;6.20;;;18.50;99.90;;;;;;5008128;28;20208;-68
2021/08/13 06:22:52;;;;;;;16.27;5.97;;;18.50;99.90;;;;;;5007878;28;20192;-67
2021/08/13 06:25:19;;;;;;;13.70;5.80;;;18.50;99.90;;;;;;5008117;28;20203;-67
2021/08/13 06:27:46;;;;;;;15.45;5.50;;;18.60;99.90;;;;;;5006726;28;20204;-68
2021/08/13 06:30:19;;;;;;;21.80;5.70;;;18.70;99.90;;;;;;5008293;28;20207;-71
2021/08/13 06:32:45;;;;;;;11.73;5.60;;;18.70;99.90;;;;;;5006755;28;20203;-71
2021/08/13 06:35:13;;;;;;;14.52;5.50;;;18.70;99.90;;;;;;5008544;28;20232;-70
2021/08/13 06:37:47;;;;;;;9.52;4.95;;;18.80;99.90;;;;;;5009304;28;20280;-67
2021/08/13 06:40:14;;;;;;;12.10;5.03;;;18.80;99.90;;;;;;5008575;28;20208;-70
2021/08/13 06:42:41;;;;;;;13.63;5.40;;;18.80;99.90;;;;;;5007629;28;20955;-70
2021/08/13 06:45:17;;;;;;;13.48;5.65;;;18.90;99.90;;;;;;5006666;28;20212;-67
2021/08/13 06:47:44;;;;;;;11.65;4.90;;;18.90;99.90;;;;;;5008018;28;20196;-69
2021/08/13 06:50:11;;;;;;;;;;;18.90;99.90;;;;;;5007739;28;20575;-70
2021/08/13 06:52:44;;;;;;;;;;;18.90;99.90;;;;;;5005843;28;20075;-70
2021/08/13 06:55:12;;;;;;;;;;;18.90;99.90;;;;;;5009253;28;20001;-68
2021/08/13 06:57:39;;;;;;;;;;;19.00;99.90;;;;;;5009713;28;20003;-69
2021/08/13 07:00:07;;;;;;;;;;;19.00;99.90;;;;;;5014600;28;19969;-70
2021/08/13 07:02:35;;;;;;;11.57;4.82;;;19.00;99.90;;;;;;5013070;28;20278;-67
2021/08/13 07:05:03;;;;;;;11.30;4.65;;;19.10;99.90;;;;;;5011407;28;20204;-67
2021/08/13 07:07:31;;;;;;;13.25;4.90;;;19.10;99.90;;;;;;5010319;28;20208;-68
2021/08/13 07:09:58;;;;;;;9.77;4.18;;;19.10;99.90;;;;;;5007642;28;20753;-68
2021/08/13 07:12:25;;;;;;;12.25;4.68;;;19.20;99.90;;;;;;5008996;28;20219;-69
2021/08/13 07:14:52;;;;;;;10.07;4.65;;;19.20;99.90;;;;;;5008410;28;20772;-70
2021/08/13 07:17:19;;;;;;;10.88;4.90;;;19.20;99.90;;;;;;5015600;28;20204;-68
2021/08/13 07:19:47;;;;;;;12.73;5.43;;;19.20;99.90;;;;;;5015863;28;20226;-68
2021/08/13 07:22:14;;;;;;;9.68;4.72;;;19.30;99.90;;;;;;5007051;28;20208;-67
2021/08/13 07:24:41;;;;;;;8.68;4.55;;;19.30;99.90;;;;;;5009870;28;20205;-69
2021/08/13 07:27:07;;;;;;;9.55;4.35;;;19.30;99.90;;;;;;5013855;28;20615;-69
2021/08/13 07:29:34;;;;;;;10.75;4.18;;;19.30;99.90;;;;;;5013919;28;20212;-69
2021/08/13 07:32:03;;;;;;;7.55;4.00;;;19.30;99.90;;;;;;5011966;28;20211;-69
2021/08/13 07:34:30;;;;;;;10.45;3.90;;;19.40;99.90;;;;;;5011372;28;20239;-68
2021/08/13 07:36:58;;;;;;;10.00;4.10;;;19.40;99.90;;;;;;5010532;28;20201;-71
2021/08/13 07:39:25;;;;;;;9.38;4.43;;;19.40;99.90;;;;;;5011941;28;20657;-70
2021/08/13 07:41:52;;;;;;;12.85;4.15;;;19.40;99.90;;;;;;5016039;28;20204;-70
2021/08/13 07:44:19;;;;;;;;;;;19.40;99.90;;;;;;5011140;28;20251;-70
2021/08/13 07:46:46;;;;;;;;;;;19.50;99.90;;;;;;5008411;28;20402;-69
2021/08/13 07:49:12;;;;;;;9.07;4.20;;;19.50;99.90;;;;;;5011014;28;20103;-69
2021/08/13 07:51:40;;;;;;;6.65;3.65;;;19.50;99.90;;;;;;5011738;28;20232;-67
2021/08/13 07:54:09;;;;;;;13.30;4.43;;;19.60;99.90;;;;;;5014773;28;20220;-68
2021/08/13 07:56:35;;;;;;;10.73;4.38;;;19.60;99.90;;;;;;5011918;28;20220;-68
2021/08/13 07:59:02;;;;;;;8.15;3.75;;;19.70;99.90;;;;;;5012809;28;20270;-65
2021/08/13 08:01:30;;;;;;;;;;;19.70;99.90;;;;;;5009989;28;20509;-67
2021/08/13 08:03:56;;;;;;;;;;;19.80;99.90;;;;;;5013363;28;20196;-68
2021/08/13 08:06:23;;;;;;;;;;;19.90;99.90;;;;;;5013548;28;20001;-67
2021/08/13 08:08:50;;;;;;;7.40;3.78;;;20.00;99.90;;;;;;5009693;28;20772;-66
2021/08/13 08:11:18;;;;;;;9.82;4.15;;;20.10;99.90;;;;;;5016983;28;20576;-68
2021/08/13 08:13:44;;;;;;;;;;;20.20;99.90;;;;;;5011574;28;20091;-68
2021/08/13 08:16:11;;;;;;;;;;;20.30;99.90;;;;;;5011917;28;20337;-67
2021/08/13 08:18:38;;;;;;;11.25;3.70;;;20.40;99.90;;;;;;5011543;28;20209;-68
2021/08/13 08:21:04;;;;;;;8.55;3.90;;;20.60;99.90;;;;;;5012390;28;20209;-68
2021/08/13 08:23:31;;;;;;;;;;;20.80;99.90;;;;;;5012517;28;20074;-67
2021/08/13 08:25:58;;;;;;;;;;;21.20;99.90;;;;;;5010972;28;20246;-66
2021/08/13 08:28:26;;;;;;;9.30;3.58;;;21.50;99.90;;;;;;5010893;28;20296;-68
2021/08/13 08:30:52;;;;;;;7.80;3.03;;;21.80;99.90;;;;;;5010893;28;20646;-67
2021/08/13 08:33:19;;;;;;;8.55;3.22;;;22.20;99.90;;;;;;5009589;28;20215;-68
2021/08/13 08:35:47;;;;;;;11.07;3.22;;;22.60;98.80;;;;;;5008398;28;20726;-66
2021/08/13 08:38:14;;;;;;;11.98;3.53;;;22.60;97.50;;;;;;5009567;28;20247;-66
2021/08/13 08:40:42;;;;;;;8.30;3.47;;;22.60;96.80;;;;;;5010257;28;20209;-66
2021/08/13 08:43:10;;;;;;;10.60;3.28;;;22.60;96.40;;;;;;5007754;28;20457;-66
2021/08/13 08:45:40;;;;;;;10.80;3.42;;;22.70;95.70;;;;;;5008681;28;20205;-67
2021/08/13 08:48:09;;;;;;;10.45;3.80;;;22.60;95.40;;;;;;5009598;28;20319;-67
2021/08/13 08:50:37;;;;;;;14.30;3.60;;;22.60;95.10;;;;;;5008049;28;20299;-68
2021/08/13 08:53:08;;;;;;;11.35;3.10;;;22.60;94.80;;;;;;5013291;28;20232;-68
2021/08/13 08:55:37;;;;;;;9.80;3.38;;;22.60;94.40;;;;;;5012146;28;20302;-69
2021/08/13 08:58:04;;;;;;;11.07;3.47;;;22.50;94.10;;;;;;5013144;28;20233;-68
2021/08/13 09:00:31;;;;;;;13.88;3.90;;;22.70;94.10;;;;;;5013124;28;20206;-67
2021/08/13 09:02:59;;;;;;;11.00;3.03;;;22.90;93.70;;;;;;5006371;28;20329;-68
2021/08/13 09:05:26;;;;;;;14.05;3.15;;;23.10;93.40;;;;;;5012949;28;20303;-69
2021/08/13 09:07:53;;;;;;;13.65;3.28;;;23.40;92.70;;;;;;5011922;28;20216;-69
2021/08/13 09:10:20;;;;;;;10.38;2.92;;;23.70;91.90;;;;;;5007456;28;21071;-67
2021/08/13 09:12:46;;;;;;;8.63;3.10;;;23.80;91.10;;;;;;5010328;28;20231;-67
2021/08/13 09:15:26;;;;;;;7.93;2.92;;;23.60;90.70;;;;;;5011539;28;20234;-69
2021/08/13 09:18:11;;;;;;;9.80;3.22;;;23.30;90.40;;;;;;5004897;28;20296;-68
2021/08/13 09:20:38;;;;;;;;;;;23.20;90.30;;;;;;5012732;28;20072;-67
2021/08/13 09:23:05;;;;;;;11.02;3.40;;;23.10;90.30;;;;;;5010353;28;20344;-68
2021/08/13 09:25:32;;;;;;;14.25;3.97;;;23.00;90.30;;;;;;5008878;28;20213;-68
2021/08/13 09:28:17;;;;;;;12.23;3.50;;;22.90;90.60;;;;;;5009266;28;20204;-68
2021/08/13 09:31:10;;;;;;;10.18;3.25;;;23.00;90.90;;;;;;5007692;28;20204;-68
2021/08/13 09:33:38;;;;;;;9.82;3.22;;;23.10;90.90;;;;;;5009274;28;20291;-69
2021/08/13 09:36:07;;;;;;;9.52;2.97;;;23.10;91.00;;;;;;5008937;28;20270;-68
2021/08/13 09:38:34;;;;;;;8.52;3.17;;;23.30;91.10;;;;;;5012384;28;20251;-68
2021/08/13 09:41:08;;;;;;;19.45;3.80;;;23.40;90.60;;;;;;5011289;28;20212;-69
2021/08/13 09:43:55;;;;;;;13.63;3.47;;;23.60;90.30;;;;;;5012269;28;20424;-69
2021/08/13 09:46:25;;;;;;;12.07;3.38;;;24.20;89.40;;;;;;5023961;28;20651;-68
2021/08/13 09:48:54;;;;;;;12.88;3.85;;;24.60;88.00;;;;;;5012243;28;20546;-68
2021/08/13 09:51:32;;;;;;;14.73;3.83;;;24.70;86.10;;;;;;5012640;28;20255;-69
2021/08/13 09:54:00;;;;;;;14.35;3.70;;;24.70;84.60;;;;;;5008640;28;20218;-68
2021/08/13 09:56:29;;;;;;;10.85;3.05;;;24.50;84.30;;;;;;5009318;28;20236;-69
2021/08/13 09:59:11;;;;;;;12.93;3.40;;;24.40;84.40;;;;;;5007521;28;20214;-67
2021/08/13 10:01:40;;;;;;;12.70;3.72;;;24.40;83.90;;;;;;5009901;28;20204;-68
2021/08/13 10:04:09;;;;;;;8.48;3.20;;;24.70;84.40;;;;;;5010238;28;20217;-67
2021/08/13 10:06:37;;;;;;;9.48;2.97;;;24.90;82.90;;;;;;5009595;28;20211;-69
2021/08/13 10:09:05;;;;;;;10.25;3.10;;;25.30;80.70;;;;;;5005047;28;20745;-70
2021/08/13 10:11:35;;;;;;;9.15;3.00;;;25.90;79.30;;;;;;5008505;28;20204;-69
2021/08/13 10:14:04;;;;;;;6.95;2.63;;;26.70;76.60;;;;;;5009613;28;20456;-68
2021/08/13 10:16:32;;;;;;;8.07;2.80;;;27.30;72.60;;;;;;5007791;28;20747;-70
2021/08/13 10:19:10;;;;;;;10.32;2.50;;;27.50;71.20;;;;;;5007962;28;20278;-70
2021/08/13 10:21:38;;;;;;;12.75;3.15;;;27.50;69.90;;;;;;5009508;28;20218;-70
2021/08/13 10:24:09;;;;;;;10.80;2.93;;;27.60;68.50;;;;;;5006415;28;20191;-68
2021/08/13 10:26:39;;;;;;;;;;;27.50;67.30;;;;;;5009296;28;20402;-67
2021/08/13 10:29:07;;;;;;;10.20;2.95;;;27.20;67.10;;;;;;5009206;28;20405;-69
2021/08/13 10:31:35;;;;;;;;;;;27.10;67.90;;;;;;5009590;28;20234;-69
2021/08/13 10:34:06;;;;;;;;;;;26.90;67.90;;;;;;5004767;28;20433;-69
2021/08/13 10:36:34;;;;;;;12.98;3.20;;;26.90;67.90;;;;;;5011056;28;20064;-70
2021/08/13 10:39:02;;;;;;;11.77;2.95;;;26.70;67.30;;;;;;5008350;28;20672;-69
2021/08/13 10:41:29;;;;;;;;;;;26.50;67.40;;;;;;5006339;28;20197;-68
2021/08/13 10:44:01;;;;;;;11.15;3.08;;;26.20;68.00;;;;;;5006016;28;20500;-68
2021/08/13 10:46:34;;;;;;;15.98;3.20;;;26.00;68.60;;;;;;5009798;28;20249;-68
2021/08/13 10:49:02;;;;;;;14.30;3.15;;;25.80;69.30;;;;;;5009066;28;20220;-69
2021/08/13 10:51:32;;;;;;;13.15;3.00;;;25.80;70.40;;;;;;5006782;28;20735;-69
2021/08/13 10:54:08;;;;;;;14.10;3.67;;;26.00;70.40;;;;;;5006164;28;20228;-68
2021/08/13 10:56:40;;;;;;;17.55;3.58;;;26.10;69.50;;;;;;5004237;28;20208;-68
2021/08/13 10:59:11;;;;;;;11.32;3.22;;;26.10;69.10;;;;;;5008637;28;20154;-68
2021/08/13 11:02:00;;;;;;;;;;;26.00;69.30;;;;;;5007200;28;20208;-67
2021/08/13 11:04:39;;;;;;;14.73;3.15;;;25.80;69.50;;;;;;5007107;28;20092;-70
2021/08/13 11:07:07;;;;;;;;;;;25.90;69.80;;;;;;5006168;28;20254;-70
2021/08/13 11:09:35;;;;;;;13.68;3.10;;;25.90;69.80;;;;;;5004859;28;20213;-69
2021/08/13 11:12:08;;;;;;;;;;;25.80;69.80;;;;;;5008389;28;20306;-69
2021/08/13 11:14:46;;;;;;;;;;;25.80;70.40;;;;;;5011413;28;20012;-65
2021/08/13 11:17:28;;;;;;;;;;;25.70;70.70;;;;;;5006631;28;19996;-67
2021/08/13 11:19:58;;;;;;;17.05;3.33;;;25.50;71.00;;;;;;5006895;28;20211;-66
2021/08/13 11:22:31;;;;;;;12.70;3.63;;;25.30;71.80;;;;;;5007659;28;20262;-66
2021/08/13 11:24:59;;;;;;;13.05;3.00;;;25.30;72.70;;;;;;5004397;28;20204;-66
2021/08/13 11:27:32;;;;;;;12.48;3.10;;;25.20;72.80;;;;;;5010328;28;20295;-68
2021/08/13 11:29:59;;;;;;;10.57;2.80;;;25.20;73.70;;;;;;5007683;28;20212;-67
2021/08/13 11:32:38;;;;;;;9.55;2.90;;;25.00;73.40;;;;;;5010003;28;20212;-67
2021/08/13 11:35:08;;;;;;;16.48;3.50;;;24.90;73.30;;;;;;5004302;28;20221;-67
2021/08/13 11:37:50;;;;;;;11.43;3.20;;;24.70;73.00;;;;;;5007163;28;20200;-64
2021/08/13 11:40:49;;;;;;;15.32;3.40;;;24.60;73.50;;;;;;5006931;28;20255;-69
2021/08/13 11:43:20;;;;;;;16.05;3.38;;;24.40;74.30;;;;;;5008361;28;20713;-67
2021/08/13 11:45:50;;;;;;;13.60;2.60;;;24.60;74.90;;;;;;5010853;28;20231;-65
2021/08/13 11:48:21;;;;;;;13.68;2.67;;;24.80;73.90;;;;;;5013790;28;20636;-66
2021/08/13 11:50:48;;;;;;;10.32;2.72;;;24.80;73.40;;;;;;5013378;28;20565;-65
2021/08/13 11:53:15;;;;;;;12.77;2.80;;;24.90;73.00;;;;;;5012387;28;20204;-69
2021/08/13 11:55:44;;;;;;;15.13;2.72;;;25.00;72.40;;;;;;5010312;28;20255;-66
2021/08/13 11:58:24;;;;;;;9.82;2.50;;;25.00;71.60;;;;;;5013028;28;20232;-69
2021/08/13 12:01:05;;;;;;;8.60;2.30;;;24.80;71.30;;;;;;5011146;28;20197;-68
2021/08/13 12:03:32;;;;;;;13.02;3.08;;;24.70;71.80;;;;;;5011860;28;20208;-69
2021/08/13 12:06:12;;;;;;;12.32;2.60;;;24.80;72.60;;;;;;5011861;28;20208;-65
2021/08/13 12:08:43;;;;;;;10.93;2.55;;;24.90;72.60;;;;;;5006886;28;20227;-67
2021/08/13 12:11:11;;;;;;;13.88;2.83;;;25.20;72.10;;;;;;5014644;28;20669;-65
2021/08/13 12:13:39;;;;;;;10.95;2.60;;;25.40;71.70;;;;;;5011436;28;20236;-66
2021/08/13 12:16:06;;;;;;;11.52;2.60;;;25.60;71.10;;;;;;5012748;28;20681;-66
2021/08/13 12:18:35;;;;;;;15.50;2.80;;;25.90;70.20;;;;;;5008948;28;20677;-67
2021/08/13 12:21:07;;;;;;;12.23;2.70;;;26.10;69.00;;;;;;5010302;28;20704;-67
2021/08/13 12:23:37;;;;;;;13.68;2.78;;;26.00;68.50;;;;;;5007702;28;20587;-68
2021/08/13 12:26:04;;;;;;;11.13;3.10;;;25.90;68.90;;;;;;5012044;28;20212;-64
2021/08/13 12:28:33;;;;;;;12.05;2.72;;;25.90;68.90;;;;;;5008647;28;20529;-65
2021/08/13 12:31:06;;;;;;;11.13;2.88;;;25.80;68.80;;;;;;5013092;28;20210;-67
2021/08/13 12:33:33;;;;;;;12.55;2.72;;;25.80;68.40;;;;;;5012035;28;20209;-67
2021/08/13 12:36:00;;;;;;;9.80;2.60;;;25.90;68.20;;;;;;5008252;28;20222;-66
2021/08/13 12:38:31;;;;;;;16.00;3.38;;;25.70;67.40;;;;;;5009212;28;20196;-64
2021/08/13 12:40:59;;;;;;;15.23;2.63;;;25.60;67.20;;;;;;5009842;28;20214;-68
2021/08/13 12:43:26;;;;;;;15.55;3.55;;;25.50;67.20;;;;;;5011929;28;20191;-67
2021/08/13 12:45:56;;;;;;;12.18;2.97;;;25.40;67.90;;;;;;5008893;28;20206;-68
2021/08/13 12:48:26;;;;;;;12.13;2.55;;;25.40;68.70;;;;;;5008020;28;20336;-68
2021/08/13 12:50:56;;;;;;;14.32;2.92;;;25.40;67.90;;;;;;5004501;28;20204;-68
2021/08/13 12:53:34;;;;;;;14.85;3.30;;;25.40;67.80;;;;;;5013584;28;20259;-66
2021/08/13 12:56:01;;;;;;;13.10;2.95;;;25.50;67.40;;;;;;5009530;28;20310;-68
2021/08/13 12:58:33;;;;;;;13.30;2.88;;;25.50;67.40;;;;;;5010705;28;20207;-67